createdAt,value
2023-03-07T00:00:15.275Z,5.65
2023-03-07T00:02:42.252Z,6.10
2023-03-07T00:05:09.875Z,6.00
2023-03-07T00:07:37.139Z,5.70
2023-03-07T00:10:04.424Z,5.28
2023-03-07T00:12:31.414Z,6.78
2023-03-07T00:14:58.398Z,6.22
2023-03-07T00:17:25.304Z,6.10
2023-03-07T00:19:52.511Z,7.13
2023-03-07T00:22:19.579Z,7.15
2023-03-07T00:24:48.642Z,7.30
2023-03-07T00:27:15.731Z,6.53
2023-03-07T00:29:42.639Z,8.10
2023-03-07T00:32:09.596Z,7.07
2023-03-07T00:34:36.730Z,6.45
2023-03-07T00:37:03.675Z,8.02
2023-03-07T00:39:30.744Z,7.45
2023-03-07T00:41:57.739Z,7.65
2023-03-07T00:44:25.492Z,8.45
2023-03-07T00:46:53.064Z,9.25
2023-03-07T00:49:20.902Z,8.13
2023-03-07T00:51:48.324Z,8.25
2023-03-07T00:54:16.339Z,8.48
2023-03-07T00:56:43.693Z,8.77
2023-03-07T00:59:11.041Z,9.65
2023-03-07T01:01:38.701Z,9.05
2023-03-07T01:04:05.811Z,7.43
2023-03-07T01:06:34.208Z,8.40
2023-03-07T01:09:07.226Z,8.82
2023-03-07T01:11:36.037Z,8.93
2023-03-07T01:14:05.825Z,9.77
2023-03-07T01:16:37.992Z,11.27
2023-03-07T01:19:12.583Z,11.18
2023-03-07T01:21:42.655Z,11.52
2023-03-07T01:24:15.192Z,11.10
2023-03-07T01:26:42.896Z,10.13
2023-03-07T01:29:12.263Z,11.70
2023-03-07T01:31:39.600Z,11.77
2023-03-07T01:34:07.598Z,10.73
2023-03-07T01:36:36.456Z,10.45
2023-03-07T01:39:17.675Z,11.23
2023-03-07T01:41:52.477Z,12.02
2023-03-07T01:44:25.866Z,12.25
2023-03-07T01:46:56.180Z,13.27
2023-03-07T01:49:52.817Z,14.18
2023-03-07T01:52:43.264Z,12.10
2023-03-07T01:55:27.204Z,11.80
2023-03-07T01:58:06.825Z,12.05
2023-03-07T02:00:36.218Z,13.52
2023-03-07T02:03:20.602Z,13.38
2023-03-07T02:05:55.885Z,14.05
2023-03-07T02:08:27.607Z,14.95
2023-03-07T02:10:54.908Z,12.80
2023-03-07T02:13:21.982Z,13.98
2023-03-07T02:15:51.069Z,14.32
2023-03-07T02:18:24.981Z,14.20
2023-03-07T02:21:12.236Z,14.40
2023-03-07T02:24:12.325Z,14.50
2023-03-07T02:26:49.916Z,15.50
2023-03-07T02:29:17.103Z,15.05
2023-03-07T02:31:47.096Z,14.25
2023-03-07T02:34:24.900Z,17.42
2023-03-07T02:37:31.373Z,17.17
2023-03-07T02:42:33.080Z,16.33
2023-03-07T02:45:10.289Z,18.08
2023-03-07T02:47:38.936Z,17.83
2023-03-07T02:50:07.094Z,16.60
2023-03-07T02:52:37.140Z,17.70
2023-03-07T02:55:04.773Z,17.15
2023-03-07T02:57:36.022Z,18.17
2023-03-07T03:00:10.058Z,17.98
2023-03-07T03:02:37.064Z,18.50
2023-03-07T03:05:04.872Z,18.15
2023-03-07T03:07:31.927Z,17.52
2023-03-07T03:09:59.090Z,17.23
2023-03-07T03:12:26.214Z,19.27
2023-03-07T03:14:53.277Z,17.90
2023-03-07T03:17:20.312Z,18.50
2023-03-07T03:19:47.443Z,18.88
2023-03-07T03:22:14.463Z,19.15
2023-03-07T03:24:45.218Z,19.10
2023-03-07T03:27:15.236Z,18.33
2023-03-07T03:29:43.935Z,19.42
2023-03-07T03:32:12.369Z,19.42
2023-03-07T03:34:42.391Z,18.48
2023-03-07T03:37:09.357Z,19.02
2023-03-07T03:39:37.626Z,20.20
2023-03-07T03:42:06.163Z,19.65
2023-03-07T03:44:33.682Z,20.10
2023-03-07T03:47:01.592Z,20.17
2023-03-07T03:49:29.748Z,19.27
2023-03-07T03:51:56.856Z,19.50
2023-03-07T03:54:24.627Z,20.02
2023-03-07T03:56:53.793Z,20.35
2023-03-07T03:59:22.179Z,19.95
2023-03-07T04:01:50.191Z,20.08
2023-03-07T04:04:18.991Z,19.15
2023-03-07T04:06:46.092Z,19.35
2023-03-07T04:09:13.081Z,20.17
2023-03-07T04:11:42.843Z,18.58
2023-03-07T04:14:10.042Z,19.38
2023-03-07T04:16:37.091Z,19.15
2023-03-07T04:19:04.222Z,19.40
2023-03-07T04:21:31.224Z,18.75
2023-03-07T04:23:59.904Z,19.27
2023-03-07T04:26:31.485Z,17.67
2023-03-07T04:28:58.901Z,18.88
2023-03-07T04:31:36.027Z,18.45
2023-03-07T04:34:04.771Z,17.95
2023-03-07T04:36:32.366Z,19.23
2023-03-07T04:38:59.441Z,18.17
2023-03-07T04:41:27.011Z,17.23
2023-03-07T04:44:07.829Z,17.80
2023-03-07T04:46:35.633Z,17.45
2023-03-07T04:49:02.932Z,17.80
2023-03-07T04:51:29.956Z,16.35
2023-03-07T04:53:56.884Z,18.45
2023-03-07T04:56:23.836Z,17.30
2023-03-07T04:58:50.956Z,15.70
2023-03-07T05:01:19.181Z,18.05
2023-03-07T05:03:47.197Z,17.17
2023-03-07T05:06:16.373Z,17.38
2023-03-07T05:08:47.840Z,18.50
2023-03-07T05:11:15.199Z,15.65
2023-03-07T05:13:42.586Z,17.02
2023-03-07T05:16:10.459Z,18.42
2023-03-07T05:18:37.681Z,16.33
2023-03-07T05:21:04.905Z,16.42
2023-03-07T05:23:31.920Z,17.23
2023-03-07T05:25:58.938Z,16.25
2023-03-07T05:28:26.071Z,16.08
2023-03-07T05:30:53.549Z,17.02
2023-03-07T05:33:21.417Z,16.65
2023-03-07T05:35:48.771Z,16.90
2023-03-07T05:38:16.839Z,16.77
2023-03-07T05:40:44.165Z,17.42
2023-03-07T05:43:12.352Z,16.38
2023-03-07T05:45:39.619Z,16.45
2023-03-07T05:48:06.701Z,17.35
2023-03-07T05:50:33.763Z,18.52
2023-03-07T05:53:00.907Z,16.35
2023-03-07T05:55:30.644Z,16.13
2023-03-07T05:57:58.404Z,17.52
2023-03-07T06:00:26.223Z,17.05
2023-03-07T06:02:57.408Z,16.58
2023-03-07T06:05:25.528Z,17.00
2023-03-07T06:07:53.521Z,16.95
2023-03-07T06:10:21.200Z,16.88
2023-03-07T06:12:55.185Z,17.95
2023-03-07T06:15:24.562Z,15.77
2023-03-07T06:17:57.677Z,16.38
2023-03-07T06:20:25.353Z,16.75
2023-03-07T06:22:54.802Z,16.42
2023-03-07T06:25:21.961Z,17.27
2023-03-07T06:27:50.007Z,16.40
2023-03-07T06:30:17.401Z,16.10
2023-03-07T06:32:45.228Z,16.77
2023-03-07T06:35:12.340Z,16.67
2023-03-07T06:37:39.423Z,16.15
2023-03-07T06:40:09.333Z,17.17
2023-03-07T06:42:38.182Z,17.15
2023-03-07T06:45:06.498Z,16.73
2023-03-07T06:47:34.119Z,15.77
2023-03-07T06:50:02.370Z,16.33
2023-03-07T06:52:30.874Z,15.43
2023-03-07T06:55:00.568Z,16.65
2023-03-07T06:57:29.380Z,17.20
2023-03-07T06:59:56.669Z,16.35
2023-03-07T07:02:24.033Z,16.63
2023-03-07T07:04:51.300Z,17.23
2023-03-07T07:07:20.263Z,16.20
2023-03-07T07:09:47.611Z,15.57
2023-03-07T07:12:14.686Z,15.35
2023-03-07T07:14:41.702Z,18.52
2023-03-07T07:17:09.052Z,17.40
2023-03-07T07:19:36.610Z,16.88
2023-03-07T07:22:04.264Z,17.13
2023-03-07T07:24:31.317Z,16.55
2023-03-07T07:26:58.808Z,15.57
2023-03-07T07:29:26.321Z,17.48
2023-03-07T07:31:54.012Z,15.55
2023-03-07T07:34:21.817Z,15.82
2023-03-07T07:36:48.867Z,16.00
2023-03-07T07:39:18.088Z,16.95
2023-03-07T07:41:47.913Z,15.38
2023-03-07T07:44:16.904Z,14.48
2023-03-07T07:46:54.771Z,15.20
2023-03-07T07:49:21.891Z,15.07
2023-03-07T07:51:49.947Z,15.80
2023-03-07T07:54:17.158Z,15.10
2023-03-07T07:56:44.578Z,15.77
2023-03-07T07:59:12.451Z,15.90
2023-03-07T08:01:39.776Z,14.75
2023-03-07T08:04:07.961Z,15.98
2023-03-07T08:06:35.034Z,14.90
2023-03-07T08:09:02.592Z,14.70
2023-03-07T08:11:29.567Z,15.02
2023-03-07T08:13:56.730Z,16.05
2023-03-07T08:16:24.229Z,14.73
2023-03-07T08:18:57.064Z,15.35
2023-03-07T08:21:25.710Z,15.63
2023-03-07T08:23:55.082Z,15.10
2023-03-07T08:26:22.766Z,14.82
2023-03-07T08:28:50.049Z,15.70
2023-03-07T08:31:24.235Z,13.93
2023-03-07T08:33:52.377Z,13.65
2023-03-07T08:36:20.055Z,14.88
2023-03-07T08:38:52.194Z,14.75
2023-03-07T08:41:22.396Z,13.82
2023-03-07T08:43:49.704Z,14.30
2023-03-07T08:46:17.306Z,14.32
2023-03-07T08:48:44.645Z,14.43
2023-03-07T08:51:15.684Z,14.77
2023-03-07T08:53:44.125Z,13.80
2023-03-07T08:56:14.976Z,15.38
2023-03-07T08:58:42.480Z,13.13
2023-03-07T09:01:10.250Z,13.63
2023-03-07T09:03:37.387Z,13.55
2023-03-07T09:06:05.653Z,13.48
2023-03-07T09:08:33.174Z,13.00
2023-03-07T09:11:03.445Z,12.98
2023-03-07T09:13:31.265Z,12.75
2023-03-07T09:15:59.038Z,12.48
2023-03-07T09:18:26.333Z,13.43
2023-03-07T09:20:53.378Z,12.82
2023-03-07T09:23:20.426Z,10.88
2023-03-07T09:25:47.494Z,11.35
2023-03-07T09:28:14.712Z,10.88
2023-03-07T09:30:41.798Z,10.70
2023-03-07T09:33:08.889Z,10.68
2023-03-07T09:35:37.452Z,10.45
2023-03-07T09:38:04.616Z,11.32
2023-03-07T09:40:35.766Z,9.90
2023-03-07T09:43:15.191Z,11.55
2023-03-07T09:46:28.594Z,10.13
2023-03-07T09:49:14.017Z,8.80
2023-03-07T09:51:46.897Z,9.30
2023-03-07T09:54:33.020Z,8.98
2023-03-07T09:57:02.595Z,9.30
2023-03-07T09:59:49.081Z,8.73
2023-03-07T10:02:36.387Z,8.77
2023-03-07T10:05:32.000Z,8.90
2023-03-07T10:08:01.658Z,7.70
2023-03-07T10:10:41.910Z,7.90
2023-03-07T10:13:45.831Z,8.85
2023-03-07T10:16:29.295Z,7.93
2023-03-07T10:19:20.937Z,8.15
2023-03-07T10:22:24.404Z,7.40
2023-03-07T10:25:08.764Z,6.75
2023-03-07T10:27:35.875Z,6.78
2023-03-07T10:30:19.280Z,7.18
2023-03-07T10:32:51.161Z,7.50
2023-03-07T10:35:39.046Z,6.13
2023-03-07T10:38:30.186Z,7.03
2023-03-07T10:41:04.003Z,6.47
2023-03-07T10:43:33.862Z,6.55
2023-03-07T10:46:27.070Z,6.45
2023-03-07T10:49:08.773Z,6.05
2023-03-07T10:52:26.834Z,5.90
2023-03-07T10:54:55.044Z,6.07
2023-03-07T10:57:28.087Z,4.70
2023-03-07T10:59:55.050Z,6.05
2023-03-07T11:02:35.405Z,5.85
2023-03-07T11:05:45.324Z,4.93
2023-03-07T11:08:36.248Z,5.63
2023-03-07T11:11:05.277Z,5.55
2023-03-07T11:13:32.557Z,6.47
2023-03-07T11:16:19.183Z,5.68
2023-03-07T11:18:46.773Z,5.95
2023-03-07T11:21:35.130Z,4.70
2023-03-07T11:24:29.747Z,4.40
2023-03-07T11:26:59.562Z,3.63
2023-03-07T11:29:28.416Z,3.40
2023-03-07T11:32:24.653Z,2.80
2023-03-07T11:35:04.173Z,3.00
2023-03-07T11:37:42.242Z,2.55
2023-03-07T11:40:23.204Z,2.10
2023-03-07T11:43:20.702Z,2.42
2023-03-07T11:46:14.858Z,2.10
2023-03-07T11:49:01.632Z,1.58
2023-03-07T11:51:52.830Z,2.20
2023-03-07T11:54:32.497Z,2.22
2023-03-07T11:57:15.601Z,2.53
2023-03-07T12:00:28.035Z,2.05
2023-03-07T12:03:18.571Z,2.10
2023-03-07T12:06:22.814Z,1.90
2023-03-07T12:09:57.387Z,2.10
2023-03-07T12:12:52.840Z,2.28
2023-03-07T12:15:34.449Z,2.10
2023-03-07T12:18:56.614Z,2.25
2023-03-07T12:21:54.848Z,2.33
2023-03-07T12:24:31.311Z,2.13
2023-03-07T12:27:11.384Z,1.67
2023-03-07T12:29:44.628Z,1.60
2023-03-07T12:32:21.452Z,1.67
2023-03-07T12:35:17.444Z,1.55
2023-03-07T12:37:56.562Z,1.63
2023-03-07T12:40:38.140Z,2.00
2023-03-07T12:43:44.315Z,1.70
2023-03-07T12:46:57.567Z,1.58
2023-03-07T12:49:54.509Z,1.63
2023-03-07T12:52:30.883Z,1.20
2023-03-07T12:55:47.054Z,1.25
2023-03-07T12:58:37.505Z,1.23
2023-03-07T13:01:14.925Z,1.35
2023-03-07T13:04:01.444Z,1.00
2023-03-07T13:06:29.766Z,1.35
2023-03-07T13:09:03.977Z,1.10
2023-03-07T13:11:34.797Z,1.27
2023-03-07T13:14:05.995Z,1.20
2023-03-07T13:16:35.916Z,1.17
2023-03-07T13:19:37.013Z,1.35
2023-03-07T13:22:24.201Z,1.20
2023-03-07T13:25:27.927Z,1.65
2023-03-07T13:28:00.377Z,1.10
2023-03-07T13:30:32.740Z,1.27
2023-03-07T13:33:02.053Z,1.50
2023-03-07T13:35:29.159Z,2.03
2023-03-07T13:38:15.001Z,1.58
2023-03-07T13:40:58.373Z,1.70
2023-03-07T13:43:27.797Z,1.40
2023-03-07T13:46:01.720Z,1.08
2023-03-07T13:48:28.833Z,1.50
2023-03-07T13:50:55.939Z,1.30
2023-03-07T13:53:30.057Z,1.20
2023-03-07T13:56:15.671Z,1.48
2023-03-07T13:59:07.113Z,1.40
2023-03-07T14:01:49.104Z,1.13
2023-03-07T14:04:39.462Z,1.30
2023-03-07T14:07:43.210Z,1.25
2023-03-07T14:10:23.790Z,1.27
2023-03-07T14:13:04.965Z,1.27
2023-03-07T14:15:57.162Z,1.30
2023-03-07T14:19:11.785Z,1.40
2023-03-07T14:21:54.750Z,1.52
2023-03-07T14:25:14.209Z,1.38
2023-03-07T14:28:02.500Z,1.35
2023-03-07T14:30:33.633Z,1.70
2023-03-07T14:33:01.438Z,1.50
2023-03-07T14:35:45.137Z,1.60
2023-03-07T14:38:25.885Z,1.58
2023-03-07T14:41:18.033Z,1.73
2023-03-07T14:44:27.173Z,1.80
2023-03-07T14:47:44.832Z,1.67
2023-03-07T14:50:26.443Z,1.23
2023-03-07T14:53:07.046Z,1.58
2023-03-07T14:55:46.728Z,1.55
2023-03-07T14:58:29.948Z,1.90
2023-03-07T15:01:06.974Z,1.70
2023-03-07T15:03:34.081Z,1.48
2023-03-07T15:06:03.058Z,1.90
2023-03-07T15:08:35.463Z,1.77
2023-03-07T15:11:22.614Z,1.40
2023-03-07T15:13:49.471Z,1.63
2023-03-07T15:16:25.547Z,1.58
2023-03-07T15:19:15.352Z,1.42
2023-03-07T15:21:56.583Z,1.30
2023-03-07T15:24:32.529Z,1.85
2023-03-07T15:27:01.068Z,1.25
2023-03-07T15:29:30.753Z,1.48
2023-03-07T15:32:02.835Z,1.52
2023-03-07T15:34:40.658Z,1.50
2023-03-07T15:37:29.712Z,1.45
2023-03-07T15:40:07.971Z,1.27
2023-03-07T15:42:49.367Z,1.17
2023-03-07T15:45:33.892Z,1.20
2023-03-07T15:48:32.083Z,1.10
2023-03-07T15:51:04.438Z,1.67
2023-03-07T15:53:38.342Z,1.27
2023-03-07T15:56:40.885Z,1.15
2023-03-07T15:59:21.767Z,1.15
2023-03-07T16:01:48.868Z,1.80
2023-03-07T16:04:37.640Z,1.25
2023-03-07T16:07:06.348Z,1.48
2023-03-07T16:09:33.657Z,1.60
2023-03-07T16:12:00.670Z,1.25
2023-03-07T16:14:33.412Z,1.50
2023-03-07T16:17:04.239Z,2.08
2023-03-07T16:19:32.235Z,1.27
2023-03-07T16:21:59.506Z,1.90
2023-03-07T16:24:26.562Z,1.40
2023-03-07T16:26:53.582Z,1.45
2023-03-07T16:29:23.064Z,1.70
2023-03-07T16:31:50.523Z,1.60
2023-03-07T16:34:21.706Z,1.58
2023-03-07T16:36:48.859Z,1.80
2023-03-07T16:39:17.888Z,1.55
2023-03-07T16:41:48.590Z,1.48
2023-03-07T16:44:18.957Z,1.48
2023-03-07T16:46:59.041Z,1.85
2023-03-07T16:49:25.950Z,1.67
2023-03-07T16:52:05.084Z,2.00
2023-03-07T16:54:33.631Z,1.70
2023-03-07T16:57:02.778Z,1.50
2023-03-07T16:59:35.824Z,1.52
2023-03-07T17:02:18.818Z,2.10
2023-03-07T17:04:46.186Z,1.92
2023-03-07T17:07:20.145Z,1.35
2023-03-07T17:09:47.250Z,1.88
2023-03-07T17:12:15.548Z,1.65
2023-03-07T17:14:42.836Z,1.88
2023-03-07T17:17:35.434Z,1.85
2023-03-07T17:20:05.630Z,2.00
2023-03-07T17:22:32.766Z,1.65
2023-03-07T17:25:01.143Z,1.80
2023-03-07T17:27:28.649Z,2.08
2023-03-07T17:29:55.969Z,1.40
2023-03-07T17:32:23.219Z,2.00
2023-03-07T17:34:50.196Z,2.00
2023-03-07T17:37:17.850Z,1.65
2023-03-07T17:39:45.641Z,1.80
2023-03-07T17:42:12.939Z,2.17
2023-03-07T17:44:40.183Z,1.60
2023-03-07T17:47:07.533Z,2.00
2023-03-07T17:49:38.081Z,2.03
2023-03-07T17:52:06.790Z,1.85
2023-03-07T17:54:33.937Z,1.92
2023-03-07T17:57:01.942Z,1.80
2023-03-07T17:59:32.481Z,2.17
2023-03-07T18:01:59.622Z,1.90
2023-03-07T18:04:28.612Z,1.85
2023-03-07T18:06:55.588Z,1.70
2023-03-07T18:09:23.257Z,1.80
2023-03-07T18:11:50.181Z,1.70
2023-03-07T18:14:17.501Z,2.35
2023-03-07T18:16:44.957Z,1.80
2023-03-07T18:19:25.312Z,1.92
2023-03-07T18:21:53.060Z,2.03
2023-03-07T18:24:29.992Z,1.98
2023-03-07T18:27:02.604Z,2.78
2023-03-07T18:29:30.723Z,1.80
2023-03-07T18:31:57.724Z,2.22
2023-03-07T18:34:24.951Z,2.00
2023-03-07T18:36:52.939Z,2.00
2023-03-07T18:39:24.058Z,2.10
2023-03-07T18:41:51.797Z,2.63
2023-03-07T18:44:19.637Z,2.00
2023-03-07T18:46:46.757Z,2.38
2023-03-07T18:49:13.815Z,2.30
2023-03-07T18:51:42.734Z,2.45
2023-03-07T18:54:10.186Z,2.42
2023-03-07T18:56:37.245Z,2.67
2023-03-07T18:59:04.478Z,2.33
2023-03-07T19:01:35.611Z,2.40
2023-03-07T19:04:04.272Z,2.38
2023-03-07T19:06:40.723Z,2.38
2023-03-07T19:09:17.651Z,2.38
2023-03-07T19:11:44.645Z,2.08
2023-03-07T19:14:12.002Z,2.33
2023-03-07T19:16:39.767Z,2.65
2023-03-07T19:19:06.970Z,3.40
2023-03-07T19:21:34.134Z,3.05
2023-03-07T19:24:04.420Z,3.10
2023-03-07T19:26:31.655Z,3.13
2023-03-07T19:28:58.945Z,2.90
2023-03-07T19:31:29.618Z,2.60
2023-03-07T19:33:58.986Z,3.03
2023-03-07T19:36:28.654Z,3.13
2023-03-07T19:38:59.086Z,3.22
2023-03-07T19:41:28.859Z,2.50
2023-03-07T19:43:59.019Z,2.92
2023-03-07T19:46:26.127Z,3.03
2023-03-07T19:48:53.364Z,2.70
2023-03-07T19:51:25.968Z,3.33
2023-03-07T19:53:56.931Z,3.80
2023-03-07T19:56:29.703Z,3.55
2023-03-07T19:58:59.909Z,3.10
2023-03-07T20:01:28.957Z,3.38
2023-03-07T20:03:56.841Z,3.78
2023-03-07T20:06:30.829Z,3.17
2023-03-07T20:08:59.978Z,3.83
2023-03-07T20:11:35.841Z,3.83
2023-03-07T20:14:06.561Z,4.15
2023-03-07T20:16:35.280Z,4.05
2023-03-07T20:19:06.768Z,4.30
2023-03-07T20:21:36.343Z,3.88
2023-03-07T20:24:03.951Z,4.38
2023-03-07T20:26:34.779Z,4.35
2023-03-07T20:29:04.328Z,3.65
2023-03-07T20:31:31.898Z,4.35
2023-03-07T20:34:00.581Z,4.28
2023-03-07T20:36:31.094Z,4.82
2023-03-07T20:39:01.740Z,4.05
2023-03-07T20:41:31.822Z,4.30
2023-03-07T20:44:03.627Z,4.90
2023-03-07T20:46:31.919Z,4.53
2023-03-07T20:49:00.976Z,5.20
2023-03-07T20:51:31.472Z,4.97
2023-03-07T20:54:07.935Z,5.38
2023-03-07T20:56:38.470Z,4.95
2023-03-07T20:59:06.160Z,5.18
2023-03-07T21:01:34.959Z,4.82
2023-03-07T21:04:11.308Z,4.97
2023-03-07T21:06:42.677Z,4.65
2023-03-07T21:09:12.077Z,4.80
2023-03-07T21:11:47.825Z,5.60
2023-03-07T21:14:17.476Z,5.25
2023-03-07T21:16:44.444Z,6.43
2023-03-07T21:19:14.936Z,5.82
2023-03-07T21:21:42.434Z,5.80
2023-03-07T21:24:12.423Z,5.90
2023-03-07T21:26:39.444Z,6.47
2023-03-07T21:29:08.898Z,5.45
2023-03-07T21:31:37.214Z,6.07
2023-03-07T21:34:13.216Z,5.70
2023-03-07T21:36:40.323Z,5.20
2023-03-07T21:39:09.909Z,5.53
2023-03-07T21:41:37.488Z,5.90
2023-03-07T21:44:07.384Z,5.22
2023-03-07T21:46:34.537Z,6.28
2023-03-07T21:49:01.745Z,5.60
2023-03-07T21:51:28.849Z,4.93
2023-03-07T21:53:55.794Z,5.05
2023-03-07T21:56:23.887Z,5.00
2023-03-07T21:58:51.797Z,4.80
2023-03-07T22:01:26.674Z,4.65
2023-03-07T22:03:56.644Z,5.32
2023-03-07T22:06:24.861Z,4.88
2023-03-07T22:08:52.009Z,3.92
2023-03-07T22:11:19.059Z,5.20
2023-03-07T22:13:46.129Z,4.78
2023-03-07T22:16:16.796Z,4.55
2023-03-07T22:18:43.956Z,4.25
2023-03-07T22:21:14.235Z,4.28
2023-03-07T22:23:42.321Z,3.67
2023-03-07T22:26:11.979Z,4.30
2023-03-07T22:28:40.515Z,4.15
2023-03-07T22:31:11.796Z,3.78
2023-03-07T22:33:40.091Z,3.78
2023-03-07T22:36:10.817Z,3.97
2023-03-07T22:38:38.072Z,4.13
2023-03-07T22:41:15.544Z,3.13
2023-03-07T22:43:43.070Z,3.40
2023-03-07T22:46:10.797Z,3.78
2023-03-07T22:48:37.946Z,3.10
2023-03-07T22:51:09.833Z,3.25
2023-03-07T22:53:36.853Z,2.58
2023-03-07T22:56:10.190Z,2.97
2023-03-07T22:58:37.222Z,2.72
2023-03-07T23:01:22.257Z,2.53
2023-03-07T23:03:51.793Z,2.90
2023-03-07T23:06:21.703Z,2.67
2023-03-07T23:08:51.751Z,2.80
2023-03-07T23:11:22.125Z,2.05
2023-03-07T23:13:49.080Z,2.03
2023-03-07T23:16:20.429Z,2.60
2023-03-07T23:18:50.635Z,1.73
2023-03-07T23:21:20.661Z,2.33
2023-03-07T23:23:48.184Z,2.05
2023-03-07T23:26:31.341Z,2.28
2023-03-07T23:28:59.478Z,2.28
2023-03-07T23:31:30.787Z,2.33
2023-03-07T23:34:05.861Z,1.98
2023-03-07T23:36:33.872Z,1.80
2023-03-07T23:39:01.191Z,1.77
2023-03-07T23:41:28.470Z,1.50
2023-03-07T23:43:59.038Z,1.50
2023-03-07T23:46:27.014Z,2.10
2023-03-07T23:48:55.630Z,1.60
2023-03-07T23:51:24.395Z,1.65
2023-03-07T23:53:51.440Z,2.13
2023-03-07T23:56:18.458Z,2.17
2023-03-07T23:58:50.168Z,1.55
